Terminal Aerodrome Forecast
Issued by NWS

Home | Current Version | Previous Version | Text Only | Print | Product List | Glossary On
Versions: 1 2 3 4 5 6 7 8 9 10 11 12 13 14 15 16 17 18 19 20 21
000
FTUS43 KDLH 252100 AAA
TAFHYR
TAF AMD
KHYR 252147Z 2522/2618 20011KT P6SM VCSH OVC012
      TEMPO 2522/2523 5SM TSRA BR OVC022CB
     FM260300 21006KT P6SM SCT015 BKN025
     FM260600 24003KT 3SM BR BKN009 OVC022
     FM261100 28006KT 6SM BR SCT014
     FM261400 27010KT P6SM SKC=

USA.gov is the U.S. government's official web portal to all federal, state and local government web resources and services.